Time;durP1;ratioP1;P1;durP2;ratioP2;P2;SDS_P1;SDS_P2;PMS_P1;PMS_P2;Temp;Humidity;BMP_temperature;BMP_pressure;BME280_temperature;BME280_humidity;BME280_pressure;Samples;Min_cycle;Max_cycle;Signal;HPM_P1;HPM_P2
2022/04/07 00:02:54;;;;;;;16.67;7.77;;;;;;;9.78;100.00;98790.59;10589474;28;20233;-69
2022/04/07 00:07:57;;;;;;;11.13;6.47;;;;;;;9.79;100.00;98786.22;10588550;28;20678;-67
2022/04/07 00:13:01;;;;;;;13.27;6.97;;;;;;;9.82;100.00;98784.38;10588081;28;20870;-65
2022/04/07 00:18:06;;;;;;;14.83;7.13;;;;;;;9.82;100.00;98773.19;10586961;28;20241;-67
2022/04/07 00:23:09;;;;;;;14.67;7.37;;;;;;;9.87;100.00;98766.13;10587981;27;20675;-64
2022/04/07 00:28:13;;;;;;;12.43;7.37;;;;;;;9.88;99.37;98762.63;10587864;28;20217;-67
2022/04/07 00:33:18;;;;;;;14.13;7.60;;;;;;;9.87;99.00;98768.72;10587457;28;20232;-69
2022/04/07 00:38:21;;;;;;;12.17;6.63;;;;;;;9.84;99.49;98750.66;10587142;28;20540;-67
2022/04/07 00:43:29;;;;;;;13.00;7.13;;;;;;;9.85;99.23;98745.44;10586856;28;20223;-65
2022/04/07 00:48:35;;;;;;;14.40;7.20;;;;;;;9.80;99.19;98747.31;10556382;28;20229;-70
2022/04/07 00:53:40;;;;;;;13.87;6.83;;;;;;;9.84;98.89;98743.75;10543809;28;20239;-66
2022/04/07 00:58:47;;;;;;;13.67;6.90;;;;;;;9.81;99.85;98735.22;10544454;28;20219;-67
2022/04/07 01:03:52;;;;;;;16.57;7.17;;;;;;;9.81;99.95;98737.81;10544189;28;20215;-66
2022/04/07 01:08:55;;;;;;;16.27;7.47;;;;;;;9.87;99.76;98728.06;10544342;28;20215;-68
2022/04/07 01:13:58;;;;;;;14.13;7.33;;;;;;;9.88;99.88;98726.34;10543930;28;20676;-69
2022/04/07 01:19:07;;;;;;;15.33;7.43;;;;;;;9.91;99.65;98713.28;10546053;28;20227;-71
2022/04/07 01:24:11;;;;;;;13.57;7.63;;;;;;;9.88;99.47;98709.06;10546745;28;20223;-67
2022/04/07 01:29:19;;;;;;;15.43;8.03;;;;;;;9.87;100.00;98709.13;10546413;28;20218;-67
2022/04/07 01:34:22;;;;;;;12.80;7.27;;;;;;;9.84;100.00;98704.00;10545937;28;20238;-67
2022/04/07 01:39:27;;;;;;;15.47;7.87;;;;;;;9.82;100.00;98704.06;10545600;28;20222;-67
2022/04/07 01:44:34;;;;;;;13.47;7.63;;;;;;;9.83;100.00;98704.94;10545922;28;20234;-66
2022/04/07 01:49:43;;;;;;;15.07;8.10;;;;;;;9.80;100.00;98702.44;10545523;28;20227;-67
2022/04/07 01:54:48;;;;;;;16.00;7.53;;;;;;;9.83;100.00;98698.00;10544810;28;20246;-65
2022/04/07 01:59:54;;;;;;;16.63;7.93;;;;;;;9.80;100.00;98695.50;10544734;28;20217;-66
2022/04/07 02:04:58;;;;;;;16.57;9.13;;;;;;;9.74;100.00;98689.69;10544706;28;20230;-70
2022/04/07 02:10:02;;;;;;;15.53;7.90;;;;;;;9.71;100.00;98689.78;10544710;28;20216;-68
2022/04/07 02:15:09;;;;;;;14.50;8.57;;;;;;;9.71;100.00;98679.44;10544898;28;20219;-71
2022/04/07 02:20:13;;;;;;;15.03;7.67;;;;;;;9.70;100.00;98678.56;10544084;28;20207;-69
2022/04/07 02:25:16;;;;;;;15.93;8.17;;;;;;;9.68;100.00;98667.41;10544104;28;20224;-69
2022/04/07 02:30:21;;;;;;;17.00;7.97;;;;;;;9.71;100.00;98664.75;10543814;28;20221;-70
2022/04/07 02:35:24;;;;;;;15.40;7.90;;;;;;;9.68;100.00;98658.81;10543612;28;20224;-69
2022/04/07 02:40:27;;;;;;;15.83;8.20;;;;;;;9.70;100.00;98664.81;10543950;28;20216;-66
2022/04/07 02:45:32;;;;;;;16.83;8.70;;;;;;;9.65;100.00;98653.72;10543567;28;20664;-67
2022/04/07 02:50:35;;;;;;;14.73;8.70;;;;;;;9.65;100.00;98646.81;10543104;28;20215;-68
2022/04/07 02:55:39;;;;;;;16.07;8.63;;;;;;;9.66;100.00;98645.06;10543146;28;20250;-68
2022/04/07 03:00:43;;;;;;;14.90;8.00;;;;;;;9.64;100.00;98633.91;10542682;28;20218;-69
2022/04/07 03:05:46;;;;;;;15.67;8.40;;;;;;;9.69;100.00;98627.69;10543127;28;20216;-67
2022/04/07 03:10:50;;;;;;;16.00;8.07;;;;;;;9.64;100.00;98621.81;10542601;28;20298;-70
2022/04/07 03:15:55;;;;;;;23.20;13.43;;;;;;;9.67;100.00;98621.69;10542481;28;20613;-67
2022/04/07 03:20:58;;;;;;;22.63;13.30;;;;;;;9.62;100.00;98620.16;10542302;28;20255;-65
2022/04/07 03:26:01;;;;;;;18.00;8.93;;;;;;;9.63;100.00;98627.88;10542753;28;20563;-69
2022/04/07 03:31:06;;;;;;;18.33;8.17;;;;;;;9.61;100.00;98627.06;10545013;28;20293;-66
2022/04/07 03:36:09;;;;;;;18.87;10.00;;;;;;;9.54;100.00;98629.94;10542128;28;20249;-69
2022/04/07 03:41:13;;;;;;;20.20;11.10;;;;;;;9.48;100.00;98624.94;10542131;28;20187;-69
2022/04/07 03:46:21;;;;;;;19.43;9.90;;;;;;;9.49;100.00;98621.50;10542041;28;20195;-66
2022/04/07 03:51:25;;;;;;;21.73;10.50;;;;;;;9.41;100.00;98619.13;10542115;28;20279;-68
2022/04/07 03:56:29;;;;;;;20.07;9.23;;;;;;;9.40;100.00;98626.97;10541857;28;20271;-67
2022/04/07 04:01:35;;;;;;;19.83;10.13;;;;;;;9.37;100.00;98625.31;10541687;28;20196;-68
2022/04/07 04:06:40;;;;;;;15.93;8.40;;;;;;;9.35;100.00;98627.94;10541744;28;20196;-68
2022/04/07 04:11:43;;;;;;;14.47;8.50;;;;;;;9.32;100.00;98635.81;10541429;28;20625;-66
2022/04/07 04:16:49;;;;;;;18.90;9.07;;;;;;;9.33;100.00;98637.53;10541314;28;20214;-70
2022/04/07 04:21:52;;;;;;;32.13;15.97;;;;;;;9.31;100.00;98628.97;10541920;28;20188;-70
2022/04/07 04:26:55;;;;;;;13.90;8.13;;;;;;;9.22;100.00;98634.44;10541525;28;20213;-69
2022/04/07 04:32:00;;;;;;;17.80;7.97;;;;;;;9.27;100.00;98640.31;10546327;28;20720;-67
2022/04/07 04:37:04;;;;;;;13.47;7.47;;;;;;;9.28;100.00;98643.75;10548361;28;20516;-67
2022/04/07 04:42:12;;;;;;;17.23;8.27;;;;;;;9.26;100.00;98640.38;10548193;28;20275;-67
2022/04/07 04:47:18;;;;;;;24.23;13.03;;;;;;;9.25;100.00;98636.91;10548874;28;20199;-69
2022/04/07 04:52:21;;;;;;;13.60;7.47;;;;;;;9.25;100.00;98642.09;10547774;28;20223;-67
2022/04/07 04:57:24;;;;;;;16.70;8.67;;;;;;;9.24;100.00;98636.97;10547546;28;20206;-67
2022/04/07 05:02:29;;;;;;;16.20;8.43;;;;;;;9.24;100.00;98637.84;10547734;28;20206;-69
2022/04/07 05:07:33;;;;;;;14.53;8.17;;;;;;;9.31;100.00;98635.88;10546975;28;20629;-69
2022/04/07 05:12:36;;;;;;;17.83;8.37;;;;;;;9.30;100.00;98631.63;10547156;28;20214;-68
2022/04/07 05:17:41;;;;;;;14.00;7.93;;;;;;;9.34;100.00;98638.38;10546747;28;20191;-68
2022/04/07 05:22:44;;;;;;;30.23;17.20;;;;;;;9.37;100.00;98634.84;10547262;28;20199;-69
2022/04/07 05:27:47;;;;;;;16.30;8.93;;;;;;;9.42;100.00;98620.84;10546662;28;20264;-69
2022/04/07 05:32:52;;;;;;;15.00;8.20;;;;;;;9.46;100.00;98616.41;10546027;28;20239;-67
2022/04/07 05:37:59;;;;;;;14.67;7.80;;;;;;;9.50;100.00;98623.16;10546130;28;20611;-67
2022/04/07 05:43:04;;;;;;;13.43;7.20;;;;;;;9.58;100.00;98616.81;10545179;28;20279;-64
2022/04/07 05:48:10;;;;;;;14.83;7.40;;;;;;;9.73;100.00;98603.38;10545689;28;20507;-69
2022/04/07 05:53:13;;;;;;;14.30;7.47;;;;;;;9.86;100.00;98601.19;10545207;28;20347;-68
2022/04/07 05:58:16;;;;;;;13.60;7.50;;;;;;;10.08;100.00;98592.63;10544961;28;20192;-66
2022/04/07 06:03:21;;;;;;;14.77;7.07;;;;;;;10.25;99.64;98582.47;10544634;28;20215;-72
2022/04/07 06:08:25;;;;;;;12.63;6.83;;;;;;;10.36;97.88;98577.72;10544824;28;20215;-68
2022/04/07 06:13:28;;;;;;;12.20;6.70;;;;;;;10.46;96.66;98584.25;10544151;28;20227;-66
2022/04/07 06:18:33;;;;;;;10.37;6.10;;;;;;;10.59;95.76;98574.25;9824607;28;10000808;-69
2022/04/07 06:23:36;;;;;;;13.93;6.63;;;;;;;10.66;94.56;98575.72;10513350;28;20221;-66
2022/04/07 06:28:41;;;;;;;15.13;7.00;;;;;;;10.77;93.45;98572.72;10516358;28;20656;-67
2022/04/07 06:33:46;;;;;;;15.97;6.97;;;;;;;10.81;92.72;98563.88;10516147;28;20221;-69
2022/04/07 06:39:09;;;;;;;14.53;6.60;;;;;;;10.96;92.15;98563.28;10515280;28;21629;-64
2022/04/07 06:44:12;;;;;;;11.50;6.00;;;;;;;11.01;91.12;98561.34;10514905;28;20332;-66
2022/04/07 06:49:17;;;;;;;11.20;5.97;;;;;;;11.05;89.64;98553.34;10514583;28;20203;-66
2022/04/07 06:54:20;;;;;;;12.20;6.93;;;;;;;11.14;88.88;98552.97;10512835;28;20234;-64
2022/04/07 06:59:24;;;;;;;10.67;5.83;;;;;;;11.18;88.24;98546.75;10515008;28;20275;-68
2022/04/07 07:04:32;;;;;;;11.23;5.70;;;;;;;11.28;87.59;98545.47;10515764;28;20215;-66
2022/04/07 07:09:35;;;;;;;10.03;5.60;;;;;;;11.45;85.71;98542.16;10515229;28;20215;-67
2022/04/07 07:14:39;;;;;;;13.87;5.73;;;;;;;11.68;83.85;98543.78;10514436;28;20568;-68
2022/04/07 07:19:43;;;;;;;12.40;5.43;;;;;;;11.92;82.47;98546.16;10513557;28;20580;-65
2022/04/07 07:24:46;;;;;;;11.07;5.63;;;;;;;12.17;81.77;98548.47;10513233;28;21698;-67
2022/04/07 07:29:50;;;;;;;9.07;4.50;;;;;;;12.27;79.05;98549.78;10514181;28;20215;-64
2022/04/07 07:34:55;;;;;;;10.87;5.87;;;;;;;12.55;78.72;98540.59;10513759;28;20223;-64
2022/04/07 07:40:02;;;;;;;21.33;13.80;;;;;;;12.67;75.09;98534.81;10515980;28;20223;-65
2022/04/07 07:45:08;;;;;;;9.50;4.97;;;;;;;12.88;74.22;98542.50;10514206;28;20219;-66
2022/04/07 07:50:13;;;;;;;12.27;4.23;;;;;;;12.96;71.40;98532.59;10513684;28;20249;-67
2022/04/07 07:55:17;;;;;;;13.37;4.33;;;;;;;13.09;70.96;98529.31;10512719;28;20231;-67
2022/04/07 08:00:23;;;;;;;7.20;3.50;;;;;;;13.17;69.42;98523.72;10513607;28;20833;-66
2022/04/07 08:05:28;;;;;;;9.10;2.90;;;;;;;13.22;68.66;98526.97;10517555;28;20191;-68
2022/04/07 08:10:32;;;;;;;6.07;2.73;;;;;;;13.31;69.14;98523.88;10523852;28;20202;-65
2022/04/07 08:15:35;;;;;;;7.37;3.20;;;;;;;13.22;67.30;98525.19;10521394;28;20215;-65
2022/04/07 08:20:40;;;;;;;8.70;2.90;;;;;;;13.26;67.22;98523.25;10521536;28;20207;-72
2022/04/07 08:25:43;;;;;;;7.33;3.20;;;;;;;13.30;67.66;98520.44;10521002;28;20219;-68
2022/04/07 08:30:46;;;;;;;7.27;2.80;;;;;;;13.24;66.67;98519.88;10519831;28;20215;-65
2022/04/07 08:35:54;;;;;;;7.33;3.33;;;;;;;13.27;66.34;98520.56;10519482;28;20250;-66
2022/04/07 08:40:57;;;;;;;7.13;2.70;;;;;;;13.39;66.29;98516.53;10521259;28;20220;-65
2022/04/07 08:46:03;;;;;;;7.77;3.10;;;;;;;13.58;66.36;98510.28;10520524;28;20223;-66
2022/04/07 08:51:08;;;;;;;8.93;3.30;;;;;;;13.56;66.00;98506.09;10520460;28;20199;-68
2022/04/07 08:56:11;;;;;;;7.33;3.60;;;;;;;13.64;65.73;98504.75;10519599;28;20215;-66
2022/04/07 09:01:14;;;;;;;8.23;2.90;;;;;;;13.70;65.34;98509.63;10519763;28;20215;-70
2022/04/07 10:17:44;;;;;;;7.67;3.40;;;;;;;17.97;52.16;98363.41;10139622;27;10002660;-67
2022/04/07 10:23:03;;;;;;;6.47;2.97;;;;;;;18.28;50.77;98360.22;10487738;28;20258;-65
2022/04/07 10:28:07;;;;;;;13.83;4.37;;;;;;;17.62;51.66;98346.69;10139313;28;10000576;-63
2022/04/07 10:33:32;;;;;;;6.63;3.03;;;;;;;17.71;51.15;98351.28;10490168;28;20361;-63
2022/04/07 10:38:40;;;;;;;18.97;12.07;;;;;;;18.26;50.22;98333.25;10490550;28;20222;-64
2022/04/07 10:44:07;;;;;;;6.00;3.20;;;;;;;17.98;50.52;98346.69;10489822;28;20655;-62
2022/04/07 10:49:13;;;;;;;7.87;3.63;;;;;;;17.62;51.69;98348.50;10490145;28;20219;-65
2022/04/07 10:54:17;;;;;;;8.20;3.67;;;;;;;18.34;50.13;98348.44;10489394;28;20228;-65
2022/04/07 10:59:21;;;;;;;6.13;2.80;;;;;;;18.56;49.60;98331.94;10489540;28;20224;-68
2022/04/07 11:05:16;;;;;;;7.50;2.93;;;;;;;19.17;47.58;98339.50;10488900;28;20220;-65
2022/04/07 11:10:45;;;;;;;5.00;2.33;;;;;;;19.04;47.67;98307.19;10361507;28;20316;-66
2022/04/07 11:15:51;;;;;;;8.57;2.77;;;;;;;20.11;46.38;98317.03;10459478;28;20252;-64
2022/04/07 11:21:03;;;;;;;6.27;2.27;;;;;;;20.02;45.63;98305.47;10461644;28;20189;-64
2022/04/07 11:26:12;;;;;;;5.83;2.97;;;;;;;20.53;45.26;98287.22;10467521;28;20267;-63
2022/04/07 11:31:53;;;;;;;6.30;3.30;;;;;;;21.33;43.11;98285.59;10502287;28;20188;-67
2022/04/07 11:36:58;;;;;;;6.07;2.70;;;;;;;21.48;42.14;98295.66;10419297;28;20623;-65
2022/04/07 11:42:01;;;;;;;6.37;2.40;;;;;;;22.36;41.56;98278.03;10435180;28;20211;-71
2022/04/07 11:47:22;;;;;;;4.97;2.30;;;;;;;22.83;39.76;98257.81;10457221;28;20203;-67
2022/04/07 11:52:28;;;;;;;7.63;2.57;;;;;;;22.59;40.26;98247.69;10456917;28;20200;-69
2022/04/07 11:57:33;;;;;;;6.27;1.90;;;;;;;22.10;41.11;98247.00;10457372;28;20292;-66
2022/04/07 12:02:36;;;;;;;7.00;1.90;;;;;;;22.03;41.30;98251.16;10460431;28;20189;-68
2022/04/07 12:07:41;;;;;;;4.27;1.90;;;;;;;21.73;41.72;98236.22;10462794;28;20600;-70
2022/04/07 12:12:45;;;;;;;5.17;2.23;;;;;;;21.73;42.03;98233.59;10462325;28;20595;-66
2022/04/07 12:18:01;;;;;;;5.47;2.20;;;;;;;21.16;42.07;98234.28;10462570;28;20224;-68
2022/04/07 12:23:07;;;;;;;3.60;1.60;;;;;;;20.17;44.42;98214.66;10461988;28;20223;-67
2022/04/07 12:28:13;;;;;;;5.67;2.27;;;;;;;19.47;45.94;98216.09;10461131;28;20551;-68
2022/04/07 12:33:38;;;;;;;3.60;1.60;;;;;;;19.01;46.40;98212.78;10461852;28;20515;-66
2022/04/07 12:38:59;;;;;;;3.20;1.20;;;;;;;18.29;47.35;98199.06;10461372;28;20223;-67
2022/04/07 12:44:02;;;;;;;3.20;1.40;;;;;;;18.30;47.62;98185.00;10460989;28;20225;-67
2022/04/07 12:49:07;;;;;;;5.27;1.50;;;;;;;20.87;42.95;98169.16;10461107;28;20303;-67
2022/04/07 12:54:14;;;;;;;3.73;1.30;;;;;;;20.63;43.88;98164.19;10460776;28;20231;-66
2022/04/07 12:59:21;;;;;;;3.83;1.07;;;;;;;18.68;46.52;98184.69;10461287;28;20296;-68
2022/04/07 13:04:44;;;;;;;41.87;26.67;;;;;;;18.33;47.25;98152.38;10460190;28;20221;-64
2022/04/07 13:09:50;;;;;;;3.90;1.20;;;;;;;20.95;43.47;98119.22;10460293;28;20652;-63
2022/04/07 13:14:53;;;;;;;4.67;1.77;;;;;;;19.69;45.42;98120.44;10459491;28;20233;-66
2022/04/07 13:19:57;;;;;;;3.00;1.13;;;;;;;19.00;46.84;98116.47;10459915;28;20375;-66
2022/04/07 13:25:02;;;;;;;3.53;1.20;;;;;;;18.63;47.20;98096.66;10459355;28;20220;-67
2022/04/07 13:30:06;;;;;;;5.07;2.10;;;;;;;18.14;48.71;98089.09;10459904;28;20373;-67
2022/04/07 13:35:10;;;;;;;3.00;1.10;;;;;;;17.88;49.48;98077.97;10458875;28;20224;-65
2022/04/07 13:40:15;;;;;;;4.23;1.20;;;;;;;17.88;50.12;98064.84;10459002;28;20217;-72
2022/04/07 13:45:26;;;;;;;4.93;1.30;;;;;;;17.96;49.79;98054.63;10458896;28;20246;-68
2022/04/07 13:50:30;;;;;;;2.93;1.00;;;;;;;17.96;49.83;98052.00;10458990;28;20223;-65
2022/04/07 13:55:35;;;;;;;2.73;1.10;;;;;;;18.19;49.65;98042.31;10458522;28;20220;-72
2022/04/07 14:00:39;;;;;;;3.10;1.10;;;;;;;19.11;48.01;98019.97;10459373;28;20223;-67
2022/04/07 14:05:43;;;;;;;3.97;1.40;;;;;;;19.22;47.63;98001.50;10458496;28;20279;-67
2022/04/07 14:10:47;;;;;;;3.53;1.07;;;;;;;19.73;46.55;97990.22;10458157;28;20496;-69
2022/04/07 14:15:52;;;;;;;3.77;1.30;;;;;;;19.77;46.04;97986.38;10456907;28;20971;-67
2022/04/07 14:20:56;;;;;;;12.50;6.47;;;;;;;19.94;46.38;97983.97;10457111;28;20193;-66
2022/04/07 14:26:00;;;;;;;5.87;1.40;;;;;;;19.19;47.49;97979.91;10457505;28;20196;-66
2022/04/07 14:31:05;;;;;;;3.73;1.50;;;;;;;18.69;47.58;97975.31;10458032;28;20200;-67
2022/04/07 14:36:09;;;;;;;3.07;1.00;;;;;;;18.36;48.62;97963.88;10457408;28;20239;-67
2022/04/07 14:41:14;;;;;;;4.70;0.80;;;;;;;18.23;47.64;97968.44;10457156;28;20658;-67
2022/04/07 14:46:17;;;;;;;3.10;0.90;;;;;;;18.05;48.67;97948.88;10457229;28;20211;-65
2022/04/07 14:51:21;;;;;;;2.87;0.90;;;;;;;17.80;48.91;97940.41;10461041;28;20232;-69
2022/04/07 14:56:26;;;;;;;5.50;1.10;;;;;;;18.17;47.99;97940.03;10465313;28;20675;-65
2022/04/07 15:01:29;;;;;;;13.23;6.70;;;;;;;17.90;48.45;97931.72;10465358;28;20196;-69
2022/04/07 15:06:32;;;;;;;3.90;1.07;;;;;;;17.73;48.57;97924.31;10465257;28;20356;-69
2022/04/07 15:11:37;;;;;;;11.30;6.70;;;;;;;17.61;49.41;97920.03;10464826;28;20199;-74
2022/04/07 15:16:41;;;;;;;2.93;0.93;;;;;;;17.66;48.97;97888.16;10463836;28;20228;-67
2022/04/07 15:21:44;;;;;;;3.37;1.07;;;;;;;18.03;48.39;97884.34;10461190;28;20562;-67
2022/04/07 15:26:50;;;;;;;5.57;1.43;;;;;;;18.11;48.09;97889.81;10461291;28;20193;-65
2022/04/07 15:31:53;;;;;;;14.80;7.23;;;;;;;17.88;48.39;97885.53;10461440;28;20192;-63
2022/04/07 15:36:56;;;;;;;4.23;1.00;;;;;;;17.62;47.24;97882.34;10461597;28;20231;-67
2022/04/07 15:42:01;;;;;;;3.03;0.93;;;;;;;17.44;47.11;97878.50;10126321;28;9999631;-73
2022/04/07 15:47:04;;;;;;;2.80;0.90;;;;;;;17.20;47.61;97877.75;10501835;28;20220;-64
2022/04/07 15:52:09;;;;;;;5.50;1.20;;;;;;;17.14;48.15;97857.25;10501465;28;20883;-64
2022/04/07 15:57:14;;;;;;;4.53;2.23;;;;;;;17.06;48.88;97851.75;10501592;28;20224;-62
2022/04/07 16:02:17;;;;;;;4.70;1.83;;;;;;;16.99;49.39;97838.28;10501062;28;20212;-66
2022/04/07 16:07:23;;;;;;;21.97;11.10;;;;;;;16.97;49.00;97842.81;10500296;28;20228;-69
2022/04/07 16:12:28;;;;;;;3.83;1.40;;;;;;;16.84;48.91;97828.16;10462944;28;20300;-68
2022/04/07 16:17:31;;;;;;;2.77;1.20;;;;;;;16.79;49.87;97818.00;10462398;28;20680;-70
2022/04/07 16:22:35;;;;;;;5.30;1.40;;;;;;;16.89;49.31;97807.66;10462413;28;20225;-65
2022/04/07 16:27:40;;;;;;;3.67;1.43;;;;;;;16.82;49.16;97790.75;10462041;28;20694;-68
2022/04/07 16:32:46;;;;;;;4.93;1.53;;;;;;;16.73;48.88;97779.19;10462062;28;20250;-66
2022/04/07 16:37:50;;;;;;;4.70;1.67;;;;;;;16.60;49.51;97770.56;10461889;28;20282;-66
2022/04/07 16:42:54;;;;;;;6.23;1.43;;;;;;;16.50;50.03;97774.03;10461803;28;20209;-67
2022/04/07 16:47:57;;;;;;;4.40;1.70;;;;;;;16.39;50.04;97758.22;10461064;28;20217;-66
2022/04/07 16:53:02;;;;;;;15.50;8.73;;;;;;;16.24;50.61;97762.00;10460873;28;20518;-66
2022/04/07 16:58:08;;;;;;;4.40;1.50;;;;;;;16.14;50.91;97760.06;10461117;28;20243;-66
2022/04/07 17:03:11;;;;;;;5.53;2.10;;;;;;;16.02;51.52;97775.81;10460754;28;20224;-65
2022/04/07 17:08:15;;;;;;;7.07;2.57;;;;;;;15.93;51.77;97759.00;10460577;28;20216;-68
2022/04/07 17:13:20;;;;;;;6.57;1.93;;;;;;;15.84;52.20;97753.63;10460108;28;20233;-67
2022/04/07 17:18:23;;;;;;;4.67;2.03;;;;;;;15.83;52.40;97746.72;10460135;28;20232;-65
2022/04/07 17:23:27;;;;;;;14.83;6.57;;;;;;;15.82;52.73;97737.22;10459902;28;20680;-67
2022/04/07 17:28:32;;;;;;;4.47;1.70;;;;;;;15.75;52.98;97730.75;10459749;28;20546;-66
2022/04/07 17:33:35;;;;;;;4.47;2.10;;;;;;;15.72;53.12;97721.34;10459745;28;20221;-68
2022/04/07 17:38:41;;;;;;;4.63;2.00;;;;;;;15.67;53.38;97706.97;10459593;28;20559;-67
2022/04/07 17:43:54;;;;;;;7.53;2.57;;;;;;;15.62;53.82;97707.28;10460156;28;20631;-68
2022/04/07 17:48:57;;;;;;;4.73;2.30;;;;;;;15.59;53.89;97702.28;10459313;28;20259;-67
2022/04/07 17:54:00;;;;;;;7.70;2.70;;;;;;;15.55;54.28;97698.19;10458162;28;20620;-70
2022/04/07 17:59:05;;;;;;;6.20;2.80;;;;;;;15.52;54.82;97701.03;10458487;28;20221;-68
2022/04/07 18:04:09;;;;;;;7.70;2.40;;;;;;;15.50;54.84;97689.84;10459288;28;20217;-70
2022/04/07 18:09:12;;;;;;;24.67;13.67;;;;;;;15.50;55.33;97695.09;10458731;28;20217;-68
2022/04/07 18:14:17;;;;;;;5.13;2.20;;;;;;;15.50;55.20;97689.84;10458260;28;20565;-70
2022/04/07 18:19:20;;;;;;;13.53;7.37;;;;;;;15.52;55.30;97679.28;10457785;28;20234;-70
2022/04/07 18:24:24;;;;;;;5.73;1.97;;;;;;;15.49;55.91;97671.69;10457023;28;20212;-69
2022/04/07 18:29:28;;;;;;;8.30;3.03;;;;;;;15.55;55.96;97672.06;10465863;28;20311;-69
2022/04/07 18:34:31;;;;;;;6.07;2.20;;;;;;;15.51;56.08;97662.78;10463427;28;20213;-67
2022/04/07 18:39:37;;;;;;;5.23;2.30;;;;;;;15.58;55.85;97678.84;10463400;28;20234;-67
2022/04/07 18:44:42;;;;;;;6.57;2.27;;;;;;;15.60;55.89;97656.06;10463119;28;20726;-67
2022/04/07 18:49:45;;;;;;;9.03;3.00;;;;;;;15.63;56.27;97656.66;10115039;27;10000277;-68
2022/04/07 18:54:48;;;;;;;5.37;2.40;;;;;;;15.67;56.05;97652.03;10462360;28;20217;-67
2022/04/07 18:59:53;;;;;;;7.23;2.33;;;;;;;15.63;56.29;97643.59;10462270;28;20225;-67
2022/04/07 19:04:57;;;;;;;13.17;2.33;;;;;;;15.62;56.31;97647.13;10462010;28;20223;-72
2022/04/07 19:10:00;;;;;;;5.80;2.43;;;;;;;15.63;56.22;97646.19;10464462;28;20676;-67
2022/04/07 19:15:06;;;;;;;5.80;2.20;;;;;;;15.64;56.21;97628.72;10464366;28;20319;-69
2022/04/07 19:20:12;;;;;;;6.23;2.30;;;;;;;15.58;56.16;97626.56;10463786;28;20217;-66
2022/04/07 19:25:17;;;;;;;6.03;2.10;;;;;;;15.60;56.20;97609.78;10464658;28;20224;-67
2022/04/07 19:30:22;;;;;;;7.73;2.50;;;;;;;15.53;56.50;97610.38;10464445;28;20306;-64
2022/04/07 19:35:25;;;;;;;5.77;1.80;;;;;;;15.52;56.31;97606.09;10462453;28;20239;-69
2022/04/07 19:40:29;;;;;;;5.23;1.90;;;;;;;15.55;56.35;97606.69;10460880;28;20216;-69
2022/04/07 19:45:34;;;;;;;5.37;1.97;;;;;;;15.51;56.22;97592.19;10460691;28;20296;-68
2022/04/07 19:50:37;;;;;;;4.23;1.80;;;;;;;15.51;55.94;97581.75;10460755;28;20221;-69
2022/04/07 19:55:40;;;;;;;14.07;8.30;;;;;;;15.49;56.50;97583.63;10461309;28;20562;-68
2022/04/07 20:00:46;;;;;;;5.40;1.80;;;;;;;15.43;56.41;97584.06;10460789;28;20225;-74
2022/04/07 20:05:50;;;;;;;8.30;2.10;;;;;;;15.38;56.44;97567.88;10458215;28;20667;-66
2022/04/07 20:10:53;;;;;;;8.13;2.20;;;;;;;15.36;56.08;97548.84;10460029;28;20552;-64
2022/04/07 20:15:58;;;;;;;10.70;2.25;;;;;;;15.30;56.62;97543.25;10110946;28;10000504;-66
2022/04/07 20:21:01;;;;;;;5.43;1.90;;;;;;;15.28;56.56;97535.53;10500641;28;20229;-66
2022/04/07 20:26:06;;;;;;;4.93;1.90;;;;;;;15.22;56.72;97514.25;10501230;28;20224;-66
2022/04/07 20:31:11;;;;;;;4.30;1.50;;;;;;;15.22;56.76;97533.34;10502125;28;20204;-65
2022/04/07 20:36:15;;;;;;;6.77;1.60;;;;;;;15.25;56.39;97543.59;10500230;28;20666;-68
2022/04/07 20:41:18;;;;;;;5.43;1.60;;;;;;;15.25;56.95;97540.97;10500056;28;20216;-67
2022/04/07 20:46:23;;;;;;;4.17;1.60;;;;;;;15.16;59.60;97551.25;10499689;28;20236;-66
2022/04/07 20:51:27;;;;;;;9.10;3.57;;;;;;;14.93;60.19;97545.94;10499207;28;20234;-64
2022/04/07 20:56:31;;;;;;;5.27;1.80;;;;;;;14.83;60.76;97541.50;10499338;28;20216;-63
2022/04/07 21:01:36;;;;;;;5.13;2.00;;;;;;;14.53;68.85;97570.63;10499970;28;20220;-64
2022/04/07 21:06:39;;;;;;;4.67;1.40;;;;;;;13.43;81.99;97595.63;10498927;28;20226;-67
2022/04/07 21:11:42;;;;;;;4.47;1.40;;;;;;;12.99;86.49;97623.66;10498752;28;20212;-65
2022/04/07 21:16:48;;;;;;;3.40;1.00;;;;;;;12.55;96.31;97668.91;10489768;28;20235;-67
2022/04/07 21:21:51;;;;;;;4.93;0.97;;;;;;;12.04;100.00;97741.41;10457267;28;20738;-66
2022/04/07 21:26:55;;;;;;;2.50;0.70;;;;;;;11.08;100.00;97726.91;10456760;28;20307;-69
2022/04/07 21:31:59;;;;;;;3.70;0.60;;;;;;;10.26;100.00;97707.94;10457340;28;20724;-68
2022/04/07 21:37:05;;;;;;;3.97;1.43;;;;;;;9.96;100.00;97721.53;10455624;28;20278;-66
2022/04/07 21:42:08;;;;;;;8.00;1.00;;;;;;;9.88;100.00;97714.19;10456232;28;20671;-72
2022/04/07 21:47:13;;;;;;;6.80;1.20;;;;;;;9.97;100.00;97715.47;10456445;28;21003;-65
2022/04/07 21:52:16;;;;;;;4.17;0.67;;;;;;;10.04;100.00;97722.03;10456311;28;20193;-67
2022/04/07 21:57:20;;;;;;;6.43;1.77;;;;;;;9.74;100.00;97711.41;10455897;28;20279;-68
2022/04/07 22:02:25;;;;;;;3.73;1.00;;;;;;;9.66;100.00;97728.25;10456116;28;20200;-67
2022/04/07 22:07:28;;;;;;;7.80;1.00;;;;;;;9.63;100.00;97725.81;10456890;28;20221;-67
2022/04/07 22:12:31;;;;;;;2.20;0.70;;;;;;;9.64;100.00;97717.13;10456030;28;20192;-71
2022/04/07 22:17:36;;;;;;;6.13;0.80;;;;;;;9.27;100.00;97715.44;10471014;28;20250;-67
2022/04/07 22:22:40;;;;;;;3.43;0.83;;;;;;;9.22;100.00;97717.41;10496533;28;20253;-71
2022/04/07 22:27:44;;;;;;;3.70;0.80;;;;;;;9.15;100.00;97727.22;10497331;28;20226;-66
2022/04/07 22:32:49;;;;;;;7.43;2.13;;;;;;;9.26;100.00;97722.41;10497530;28;20283;-66
2022/04/07 22:37:53;;;;;;;2.40;0.70;;;;;;;9.29;100.00;97714.47;10497465;28;20214;-65
2022/04/07 22:42:57;;;;;;;3.00;0.80;;;;;;;9.35;100.00;97724.53;10497294;28;20189;-67
2022/04/07 22:48:02;;;;;;;4.33;0.87;;;;;;;9.25;100.00;97709.50;10496781;28;20224;-68
2022/04/07 22:53:05;;;;;;;3.50;0.90;;;;;;;9.38;100.00;97704.59;10496824;28;20231;-70
2022/04/07 22:58:09;;;;;;;2.90;0.70;;;;;;;9.34;100.00;97683.19;10496651;28;20222;-66
2022/04/07 23:03:14;;;;;;;3.13;0.90;;;;;;;9.34;100.00;97691.81;10496469;28;20222;-66
2022/04/07 23:08:17;;;;;;;3.87;1.00;;;;;;;9.50;100.00;97717.78;10495174;28;20431;-67
2022/04/07 23:13:21;;;;;;;3.23;0.90;;;;;;;9.36;100.00;97735.72;10500906;28;20232;-67
2022/04/07 23:18:25;;;;;;;2.93;0.73;;;;;;;9.40;100.00;97745.03;10481643;28;20225;-68
2022/04/07 23:23:29;;;;;;;3.50;0.90;;;;;;;9.42;100.00;97729.44;10462071;28;20219;-65
2022/04/07 23:28:32;;;;;;;2.50;0.80;;;;;;;9.52;100.00;97725.47;10463387;28;20239;-66
2022/04/07 23:33:36;;;;;;;3.17;0.93;;;;;;;9.53;100.00;97732.31;10464621;28;20311;-67
2022/04/07 23:38:40;;;;;;;4.63;0.90;;;;;;;9.58;100.00;97705.31;10464634;28;20701;-66
2022/04/07 23:43:44;;;;;;;4.70;1.40;;;;;;;9.58;100.00;97697.53;10464386;28;20239;-66
2022/04/07 23:48:48;;;;;;;5.60;1.07;;;;;;;9.58;100.00;97687.19;10463717;28;20346;-68
2022/04/07 23:53:51;;;;;;;3.47;1.10;;;;;;;9.60;100.00;97674.16;10463785;28;20224;-64
2022/04/07 23:58:55;;;;;;;2.80;1.00;;;;;;;9.54;100.00;97666.72;10464121;28;20223;-65
